createdAt,value
2022-12-31T00:00:41.098Z,76.74
2022-12-31T00:03:10.703Z,76.78
2022-12-31T00:05:38.841Z,76.68
2022-12-31T00:08:08.301Z,76.24
2022-12-31T00:10:41.275Z,76.35
2022-12-31T00:13:09.939Z,76.15
2022-12-31T00:15:39.389Z,75.99
2022-12-31T00:18:13.302Z,76.02
2022-12-31T00:20:42.549Z,75.72
2022-12-31T00:23:17.052Z,75.73
2022-12-31T00:25:45.178Z,75.51
2022-12-31T00:28:13.267Z,75.41
2022-12-31T00:30:41.296Z,75.40
2022-12-31T00:33:11.641Z,75.75
2022-12-31T00:35:39.664Z,75.62
2022-12-31T00:38:07.655Z,75.79
2022-12-31T00:40:36.998Z,76.25
2022-12-31T00:43:09.608Z,75.75
2022-12-31T00:45:37.612Z,75.76
2022-12-31T00:48:06.448Z,75.90
2022-12-31T00:50:34.446Z,75.77
2022-12-31T00:53:02.506Z,75.83
2022-12-31T00:55:32.239Z,75.61
2022-12-31T00:58:02.951Z,75.21
2022-12-31T01:00:31.099Z,75.22
2022-12-31T01:02:59.315Z,75.35
2022-12-31T01:05:27.472Z,75.46
2022-12-31T01:07:55.596Z,75.15
2022-12-31T01:10:37.624Z,75.35
2022-12-31T01:13:06.977Z,75.17
2022-12-31T01:15:36.235Z,75.37
2022-12-31T01:18:05.667Z,75.19
2022-12-31T01:20:37.701Z,75.12
2022-12-31T01:23:06.120Z,75.43
2022-12-31T01:25:37.228Z,75.09
2022-12-31T01:28:07.444Z,74.96
2022-12-31T01:30:39.143Z,75.04
2022-12-31T01:33:07.251Z,74.65
2022-12-31T01:35:36.292Z,75.04
2022-12-31T01:38:04.328Z,74.96
2022-12-31T01:40:37.308Z,74.47
2022-12-31T01:43:17.478Z,74.15
2022-12-31T01:45:49.093Z,74.33
2022-12-31T01:48:25.989Z,74.11
2022-12-31T01:50:55.608Z,73.79
2022-12-31T01:53:23.815Z,73.56
2022-12-31T01:55:57.569Z,73.63
2022-12-31T01:58:31.208Z,73.61
2022-12-31T02:01:00.099Z,73.79
2022-12-31T02:03:29.831Z,73.43
2022-12-31T02:06:05.367Z,73.63
2022-12-31T02:08:39.925Z,73.73
2022-12-31T02:11:26.793Z,73.16
2022-12-31T02:14:05.329Z,73.53
2022-12-31T02:16:46.998Z,73.27
2022-12-31T02:19:54.263Z,73.04
2022-12-31T02:22:39.294Z,73.09
2022-12-31T02:25:33.033Z,72.84
2022-12-31T02:28:20.866Z,72.66
2022-12-31T02:30:57.019Z,72.60
2022-12-31T02:33:32.907Z,72.30
2022-12-31T02:36:07.607Z,72.20
2022-12-31T02:38:41.481Z,72.37
2022-12-31T02:41:34.088Z,72.08
2022-12-31T02:44:02.310Z,72.02
2022-12-31T02:46:42.301Z,71.65
2022-12-31T02:49:17.491Z,71.38
2022-12-31T02:51:55.183Z,71.56
2022-12-31T02:54:34.885Z,71.52
2022-12-31T02:57:12.835Z,71.17
2022-12-31T03:00:09.483Z,71.07
2022-12-31T03:02:43.001Z,70.78
2022-12-31T03:05:12.678Z,70.74
2022-12-31T03:07:42.652Z,70.81
2022-12-31T03:10:11.436Z,70.49
2022-12-31T03:12:47.937Z,70.68
2022-12-31T03:15:21.428Z,70.86
2022-12-31T03:17:58.591Z,70.91
2022-12-31T03:20:48.695Z,71.08
2022-12-31T03:23:23.171Z,70.87
2022-12-31T03:25:50.503Z,70.89
2022-12-31T03:28:21.302Z,70.79
2022-12-31T03:30:52.541Z,70.79
2022-12-31T03:33:23.603Z,71.15
2022-12-31T03:35:52.996Z,71.06
2022-12-31T03:38:21.356Z,70.70
2022-12-31T03:40:52.831Z,70.63
2022-12-31T03:43:21.605Z,70.81
2022-12-31T03:45:51.588Z,71.01
2022-12-31T03:48:22.640Z,71.08
2022-12-31T03:50:51.400Z,71.22
2022-12-31T03:53:19.729Z,70.91
2022-12-31T03:55:52.831Z,70.98
2022-12-31T03:58:20.906Z,71.18
2022-12-31T04:00:48.992Z,71.01
2022-12-31T04:03:17.220Z,71.30
2022-12-31T04:05:52.441Z,71.46
2022-12-31T04:08:20.461Z,71.49
2022-12-31T04:10:48.516Z,71.63
2022-12-31T04:13:16.490Z,71.64
2022-12-31T04:15:44.487Z,71.27
2022-12-31T04:18:13.253Z,71.45
2022-12-31T04:20:41.398Z,71.60
2022-12-31T04:23:10.960Z,71.67
2022-12-31T04:25:38.985Z,71.37
2022-12-31T04:28:06.955Z,71.31
2022-12-31T04:30:35.234Z,71.05
2022-12-31T04:33:03.245Z,71.13
2022-12-31T04:35:31.437Z,71.23
2022-12-31T04:37:59.466Z,71.38
2022-12-31T04:40:28.836Z,71.25
2022-12-31T04:42:56.868Z,71.27
2022-12-31T04:45:24.866Z,70.96
2022-12-31T04:47:52.905Z,71.17
2022-12-31T04:50:20.922Z,70.94
2022-12-31T04:52:49.500Z,71.04
2022-12-31T04:55:17.761Z,70.99
2022-12-31T04:57:47.489Z,70.88
2022-12-31T05:00:16.331Z,71.05
2022-12-31T05:02:44.425Z,70.62
2022-12-31T05:05:12.521Z,70.60
2022-12-31T05:07:40.834Z,70.49
2022-12-31T05:10:12.716Z,70.29
2022-12-31T05:12:40.873Z,70.36
2022-12-31T05:15:11.123Z,70.41
2022-12-31T05:17:39.333Z,70.37
2022-12-31T05:20:08.820Z,70.75
2022-12-31T05:22:36.786Z,70.38
2022-12-31T05:25:05.737Z,70.02
2022-12-31T05:27:34.509Z,70.05
2022-12-31T05:30:02.537Z,70.29
2022-12-31T05:32:31.953Z,70.04
2022-12-31T05:35:00.575Z,70.00
2022-12-31T05:37:30.430Z,69.44
2022-12-31T05:39:59.079Z,69.91
2022-12-31T05:42:28.029Z,69.72
2022-12-31T05:44:56.054Z,69.72
2022-12-31T05:47:24.218Z,69.28
2022-12-31T05:49:53.837Z,69.79
2022-12-31T05:52:22.384Z,69.47
2022-12-31T05:54:50.420Z,69.34
2022-12-31T05:57:18.473Z,69.26
2022-12-31T05:59:46.464Z,69.18
2022-12-31T06:02:14.548Z,69.22
2022-12-31T06:04:42.570Z,68.96
2022-12-31T06:07:12.045Z,68.97
2022-12-31T06:09:40.095Z,69.26
2022-12-31T06:12:08.689Z,69.09
2022-12-31T06:14:42.250Z,69.01
2022-12-31T06:17:13.587Z,69.31
2022-12-31T06:19:43.044Z,69.00
2022-12-31T06:22:17.111Z,68.90
2022-12-31T06:24:45.201Z,68.87
2022-12-31T06:27:13.506Z,68.96
2022-12-31T06:29:41.790Z,68.62
2022-12-31T06:32:09.832Z,68.66
2022-12-31T06:34:37.922Z,68.17
2022-12-31T06:37:05.988Z,68.26
2022-12-31T06:39:35.321Z,68.63
2022-12-31T06:42:03.356Z,68.96
2022-12-31T06:44:31.418Z,68.22
2022-12-31T06:46:59.445Z,67.73
2022-12-31T06:49:27.485Z,67.97
2022-12-31T06:51:55.542Z,67.79
2022-12-31T06:54:23.572Z,68.06
2022-12-31T06:56:53.857Z,68.43
2022-12-31T06:59:28.319Z,68.09
2022-12-31T07:02:28.810Z,67.64
2022-12-31T07:05:22.325Z,68.06
2022-12-31T07:08:03.013Z,68.49
2022-12-31T07:10:44.366Z,68.25
2022-12-31T07:13:32.713Z,68.37
2022-12-31T07:16:19.130Z,68.44
2022-12-31T07:18:54.079Z,68.12
2022-12-31T07:21:32.804Z,67.97
2022-12-31T07:24:01.606Z,68.34
2022-12-31T07:26:52.607Z,68.10
2022-12-31T07:29:42.536Z,68.23
2022-12-31T07:32:28.339Z,67.88
2022-12-31T07:35:05.424Z,68.14
2022-12-31T07:37:43.438Z,67.86
2022-12-31T07:40:19.453Z,67.93
2022-12-31T07:43:06.320Z,67.02
2022-12-31T07:45:46.583Z,67.32
2022-12-31T07:48:24.814Z,67.13
2022-12-31T07:50:55.901Z,66.91
2022-12-31T07:53:25.544Z,67.41
2022-12-31T07:55:57.425Z,66.97
2022-12-31T07:58:34.075Z,66.69
2022-12-31T08:01:05.243Z,66.79
2022-12-31T08:03:54.637Z,66.43
2022-12-31T08:06:34.857Z,67.10
2022-12-31T08:09:11.251Z,66.82
2022-12-31T08:11:49.178Z,66.67
2022-12-31T08:14:19.358Z,66.33
2022-12-31T08:16:49.789Z,65.68
2022-12-31T08:19:25.807Z,65.99
2022-12-31T08:22:13.727Z,66.23
2022-12-31T08:24:56.781Z,66.24
2022-12-31T08:27:33.452Z,66.18
2022-12-31T08:30:09.920Z,66.07
2022-12-31T08:32:47.496Z,65.70
2022-12-31T08:35:30.841Z,65.92
2022-12-31T08:38:11.592Z,65.58
2022-12-31T08:40:52.381Z,65.71
2022-12-31T08:43:39.749Z,66.09
2022-12-31T08:46:18.614Z,65.66
2022-12-31T08:48:48.803Z,65.60
2022-12-31T08:51:21.828Z,65.32
2022-12-31T08:53:51.356Z,65.06
2022-12-31T08:56:30.262Z,65.13
2022-12-31T08:59:22.027Z,65.25
2022-12-31T09:02:18.580Z,64.74
2022-12-31T09:05:02.860Z,65.22
2022-12-31T09:07:37.175Z,65.05
2022-12-31T09:10:18.334Z,65.12
2022-12-31T09:12:58.565Z,64.55
2022-12-31T09:15:34.863Z,65.06
2022-12-31T09:18:03.679Z,64.59
2022-12-31T09:20:44.483Z,64.08
2022-12-31T09:23:14.245Z,64.03
2022-12-31T09:25:55.500Z,63.88
2022-12-31T09:28:39.971Z,63.49
2022-12-31T09:31:16.547Z,63.30
2022-12-31T09:33:52.778Z,63.49
2022-12-31T09:36:30.717Z,63.28
2022-12-31T09:39:08.035Z,63.35
2022-12-31T09:42:41.795Z,63.10
2022-12-31T09:45:44.786Z,62.46
2022-12-31T09:49:03.402Z,62.31
2022-12-31T09:51:37.567Z,62.44
2022-12-31T09:54:47.325Z,61.25
2022-12-31T09:57:39.115Z,61.54
2022-12-31T10:00:16.867Z,61.92
2022-12-31T10:03:17.846Z,61.26
2022-12-31T10:06:00.558Z,61.23
2022-12-31T10:08:50.767Z,61.14
2022-12-31T10:11:30.243Z,61.10
2022-12-31T10:14:19.466Z,61.03
2022-12-31T10:17:09.316Z,60.45
2022-12-31T10:20:16.678Z,59.93
2022-12-31T10:23:03.463Z,59.79
2022-12-31T10:26:06.855Z,60.09
2022-12-31T10:28:53.326Z,59.54
2022-12-31T10:31:40.611Z,59.46
2022-12-31T10:34:18.306Z,59.43
2022-12-31T10:37:04.560Z,59.26
2022-12-31T10:39:50.275Z,58.84
2022-12-31T10:42:58.346Z,59.18
2022-12-31T10:45:59.077Z,58.76
2022-12-31T10:49:04.324Z,57.46
2022-12-31T10:52:10.530Z,58.36
2022-12-31T10:55:25.380Z,57.84
2022-12-31T10:58:38.002Z,57.80
2022-12-31T11:01:14.378Z,57.69
2022-12-31T11:04:25.288Z,57.11
2022-12-31T11:07:22.452Z,57.46
2022-12-31T11:10:35.823Z,56.40
2022-12-31T11:14:09.273Z,57.35
2022-12-31T11:16:57.002Z,57.03
2022-12-31T11:19:37.177Z,56.88
2022-12-31T11:22:32.476Z,57.29
2022-12-31T11:25:18.553Z,55.99
2022-12-31T11:28:07.283Z,56.14
2022-12-31T11:30:52.279Z,56.34
2022-12-31T11:33:50.170Z,55.22
2022-12-31T11:36:29.566Z,55.32
2022-12-31T11:39:30.714Z,55.45
2022-12-31T11:42:11.967Z,55.50
2022-12-31T11:44:50.770Z,55.43
2022-12-31T11:48:28.545Z,55.21
2022-12-31T11:50:50.961Z,54.92
2022-12-31T11:53:57.626Z,55.06
2022-12-31T11:56:31.039Z,55.32
2022-12-31T11:59:03.640Z,54.75
2022-12-31T12:01:52.466Z,55.27
2022-12-31T12:04:21.886Z,54.90
2022-12-31T12:06:49.917Z,53.98
2022-12-31T12:09:28.397Z,54.00
2022-12-31T12:12:01.360Z,54.49
2022-12-31T12:14:35.153Z,53.85
2022-12-31T12:17:07.523Z,53.76
2022-12-31T12:19:45.349Z,53.54
2022-12-31T12:22:20.036Z,54.13
2022-12-31T12:25:03.443Z,53.84
2022-12-31T12:27:34.650Z,53.74
2022-12-31T12:30:12.516Z,53.81
2022-12-31T12:32:40.513Z,53.68
2022-12-31T12:35:20.717Z,53.30
2022-12-31T12:37:59.004Z,54.27
2022-12-31T12:40:33.331Z,54.15
2022-12-31T12:43:03.395Z,54.09
2022-12-31T12:45:48.997Z,54.47
2022-12-31T12:48:28.689Z,54.52
2022-12-31T12:50:58.836Z,54.01
2022-12-31T12:53:43.465Z,53.37
2022-12-31T12:56:27.465Z,53.59
2022-12-31T12:59:19.491Z,54.21
2022-12-31T13:01:57.773Z,54.53
2022-12-31T13:04:55.424Z,54.14
2022-12-31T13:07:47.743Z,54.00
2022-12-31T13:10:30.307Z,54.81
2022-12-31T13:13:27.581Z,54.46
2022-12-31T13:16:05.628Z,54.70
2022-12-31T13:18:48.129Z,54.57
2022-12-31T13:21:42.625Z,54.36
2022-12-31T13:24:25.313Z,54.89
2022-12-31T13:27:03.637Z,54.69
2022-12-31T13:29:35.946Z,54.48
2022-12-31T13:32:08.715Z,54.04
2022-12-31T13:34:41.537Z,54.49
2022-12-31T13:37:26.551Z,54.00
2022-12-31T13:40:03.778Z,54.41
2022-12-31T13:42:43.309Z,54.18
2022-12-31T13:45:17.543Z,54.56
2022-12-31T13:47:49.324Z,54.36
2022-12-31T13:50:27.662Z,54.35
2022-12-31T13:53:01.098Z,54.25
2022-12-31T13:55:38.088Z,53.77
2022-12-31T13:58:22.591Z,54.27
2022-12-31T14:00:57.103Z,53.79
2022-12-31T14:03:36.071Z,54.06
2022-12-31T14:06:12.446Z,54.48
2022-12-31T14:08:41.207Z,54.48
2022-12-31T14:11:21.843Z,53.95
2022-12-31T14:14:07.794Z,53.62
2022-12-31T14:16:49.147Z,53.90
2022-12-31T14:19:35.277Z,54.24
2022-12-31T14:22:14.580Z,54.10
2022-12-31T14:24:46.932Z,54.58
2022-12-31T14:27:22.848Z,55.03
2022-12-31T14:29:56.220Z,55.14
2022-12-31T14:32:56.494Z,55.07
2022-12-31T14:35:40.044Z,55.13
2022-12-31T14:38:18.671Z,54.87
2022-12-31T14:41:01.603Z,55.03
2022-12-31T14:43:43.430Z,55.18
2022-12-31T14:46:24.115Z,55.12
2022-12-31T14:49:03.596Z,55.42
2022-12-31T14:51:32.494Z,56.02
2022-12-31T14:54:00.553Z,55.45
2022-12-31T14:56:33.752Z,55.31
2022-12-31T14:59:04.604Z,55.60
2022-12-31T15:01:33.382Z,56.41
2022-12-31T15:04:01.474Z,56.26
2022-12-31T15:06:42.760Z,55.44
2022-12-31T15:09:28.758Z,55.93
2022-12-31T15:12:22.976Z,56.11
2022-12-31T15:15:36.431Z,56.94
2022-12-31T15:18:32.621Z,57.01
2022-12-31T15:21:35.456Z,56.65
2022-12-31T15:24:13.972Z,57.29
2022-12-31T15:26:50.822Z,57.30
2022-12-31T15:29:29.788Z,57.50
2022-12-31T15:32:03.627Z,57.63
2022-12-31T15:34:35.273Z,57.61
2022-12-31T15:37:06.495Z,58.08
2022-12-31T15:39:44.400Z,57.48
2022-12-31T15:42:45.858Z,57.61
2022-12-31T15:45:25.487Z,58.03
2022-12-31T15:48:00.135Z,57.71
2022-12-31T15:50:30.150Z,57.96
2022-12-31T15:53:01.779Z,58.05
2022-12-31T15:55:38.309Z,58.09
2022-12-31T15:58:12.216Z,58.39
2022-12-31T16:00:58.265Z,57.97
2022-12-31T16:03:30.950Z,58.19
2022-12-31T16:06:03.243Z,58.40
2022-12-31T16:08:34.822Z,58.44
2022-12-31T16:11:06.045Z,58.98
2022-12-31T16:13:39.758Z,58.74
2022-12-31T16:16:23.546Z,58.52
2022-12-31T16:18:53.987Z,58.84
2022-12-31T16:21:30.061Z,58.91
2022-12-31T16:24:00.377Z,59.18
2022-12-31T16:26:35.045Z,59.58
2022-12-31T16:29:05.168Z,59.70
2022-12-31T16:31:33.340Z,59.86
2022-12-31T16:34:08.272Z,59.97
2022-12-31T16:36:36.527Z,60.03
2022-12-31T16:39:26.666Z,60.10
2022-12-31T16:42:09.488Z,60.32
2022-12-31T16:44:37.648Z,60.32
2022-12-31T16:47:09.801Z,60.39
2022-12-31T16:49:40.688Z,60.25
2022-12-31T16:52:25.681Z,60.44
2022-12-31T16:54:55.237Z,60.43
2022-12-31T16:57:26.631Z,60.58
2022-12-31T16:59:58.486Z,60.67
2022-12-31T17:02:34.762Z,60.89
2022-12-31T17:05:04.478Z,61.16
2022-12-31T17:07:43.227Z,61.38
2022-12-31T17:10:22.485Z,60.96
2022-12-31T17:15:45.950Z,61.61
2022-12-31T17:18:19.929Z,61.34
2022-12-31T17:20:51.319Z,61.39
2022-12-31T17:23:27.541Z,61.51
2022-12-31T17:26:00.760Z,61.71
2022-12-31T17:28:39.344Z,61.61
2022-12-31T17:31:33.294Z,61.05
2022-12-31T17:34:30.507Z,61.28
2022-12-31T17:37:18.652Z,61.78
2022-12-31T17:39:52.639Z,61.90
2022-12-31T17:42:32.406Z,61.53
2022-12-31T17:45:03.916Z,61.87
2022-12-31T17:47:38.089Z,62.29
2022-12-31T17:50:21.345Z,61.63
2022-12-31T17:52:50.951Z,61.75
2022-12-31T17:55:19.075Z,61.76
2022-12-31T17:57:52.260Z,61.85
2022-12-31T18:00:22.814Z,61.86
2022-12-31T18:02:50.873Z,62.05
2022-12-31T18:05:21.789Z,62.16
2022-12-31T18:07:51.615Z,62.42
2022-12-31T18:10:23.151Z,62.13
2022-12-31T18:12:51.412Z,62.16
2022-12-31T18:15:22.790Z,61.85
2022-12-31T18:17:51.136Z,62.08
2022-12-31T18:20:19.549Z,62.17
2022-12-31T18:22:47.844Z,62.53
2022-12-31T18:25:20.358Z,62.26
2022-12-31T18:27:48.818Z,61.87
2022-12-31T18:30:17.654Z,62.54
2022-12-31T18:32:47.132Z,62.47
2022-12-31T18:35:40.651Z,62.35
2022-12-31T18:38:12.032Z,62.41
2022-12-31T18:40:46.354Z,62.71
2022-12-31T18:43:17.464Z,62.14
2022-12-31T18:45:46.159Z,62.54
2022-12-31T18:48:14.296Z,62.68
2022-12-31T18:50:42.841Z,62.55
2022-12-31T18:53:18.291Z,62.56
2022-12-31T18:55:50.385Z,62.64
2022-12-31T18:58:18.393Z,62.70
2022-12-31T19:00:47.850Z,62.77
2022-12-31T19:03:18.223Z,62.56
2022-12-31T19:05:49.558Z,62.92
2022-12-31T19:08:17.771Z,63.11
2022-12-31T19:10:47.858Z,62.96
2022-12-31T19:13:18.983Z,62.79
2022-12-31T19:15:49.140Z,62.57
2022-12-31T19:18:17.637Z,62.72
2022-12-31T19:20:46.087Z,62.63
2022-12-31T19:23:17.779Z,62.38
2022-12-31T19:25:49.301Z,62.54
2022-12-31T19:28:19.779Z,62.69
2022-12-31T19:30:47.954Z,62.94
2022-12-31T19:33:18.311Z,62.66
2022-12-31T19:35:46.784Z,62.53
2022-12-31T19:38:20.839Z,62.85
2022-12-31T19:40:51.178Z,62.27
2022-12-31T19:43:22.427Z,62.46
2022-12-31T19:45:51.863Z,62.66
2022-12-31T19:48:28.573Z,62.34
2022-12-31T19:51:00.470Z,62.62
2022-12-31T19:53:29.502Z,62.78
2022-12-31T19:55:58.857Z,62.44
2022-12-31T19:58:27.882Z,62.65
2022-12-31T20:01:02.250Z,62.51
2022-12-31T20:03:33.235Z,62.35
2022-12-31T20:06:10.466Z,62.37
2022-12-31T20:08:43.278Z,61.99
2022-12-31T20:11:15.291Z,62.32
2022-12-31T20:13:44.167Z,62.37
2022-12-31T20:16:15.570Z,62.12
2022-12-31T20:18:45.263Z,62.09
2022-12-31T20:21:17.789Z,62.71
2022-12-31T20:23:47.281Z,62.48
2022-12-31T20:26:17.185Z,62.46
2022-12-31T20:28:45.595Z,62.71
2022-12-31T20:31:16.809Z,62.39
2022-12-31T20:33:45.677Z,62.78
2022-12-31T20:36:16.950Z,62.81
2022-12-31T20:38:45.589Z,63.01
2022-12-31T20:41:17.887Z,62.83
2022-12-31T20:43:46.831Z,63.44
2022-12-31T20:46:18.720Z,63.16
2022-12-31T20:48:48.692Z,63.13
2022-12-31T20:51:18.242Z,63.22
2022-12-31T20:53:48.667Z,62.81
2022-12-31T20:56:18.836Z,62.80
2022-12-31T20:58:46.963Z,62.85
2022-12-31T21:01:17.306Z,62.98
2022-12-31T21:04:05.829Z,62.74
2022-12-31T21:06:35.837Z,63.16
2022-12-31T21:09:06.591Z,63.14
2022-12-31T21:11:53.875Z,62.94
2022-12-31T21:14:22.106Z,63.05
2022-12-31T21:16:50.264Z,63.28
2022-12-31T21:19:18.333Z,62.85
2022-12-31T21:21:48.055Z,63.22
2022-12-31T21:24:20.340Z,62.88
2022-12-31T21:26:55.344Z,63.17
2022-12-31T21:29:23.793Z,63.00
2022-12-31T21:31:51.785Z,62.94
2022-12-31T21:34:19.808Z,62.98
2022-12-31T21:36:47.795Z,63.05
2022-12-31T21:39:15.943Z,62.73
2022-12-31T21:41:52.962Z,62.82
2022-12-31T21:44:24.925Z,62.74
2022-12-31T21:47:34.419Z,62.74
2022-12-31T21:49:45.937Z,63.12
2022-12-31T21:52:26.961Z,62.56
2022-12-31T21:55:12.876Z,62.87
2022-12-31T21:58:15.438Z,62.83
2022-12-31T22:00:49.024Z,63.04
2022-12-31T22:03:27.505Z,63.08
2022-12-31T22:05:59.952Z,63.01
2022-12-31T22:08:30.079Z,62.74
2022-12-31T22:10:58.550Z,62.98
2022-12-31T22:13:26.587Z,63.02
2022-12-31T22:16:04.220Z,62.71
2022-12-31T22:18:35.270Z,63.17
2022-12-31T22:21:05.784Z,62.81
2022-12-31T22:23:35.581Z,62.65
2022-12-31T22:26:04.603Z,62.79
2022-12-31T22:28:38.780Z,62.82
2022-12-31T22:31:09.895Z,62.97
2022-12-31T22:33:37.910Z,62.90
2022-12-31T22:36:08.735Z,62.83
2022-12-31T22:38:37.299Z,63.24
2022-12-31T22:41:08.531Z,62.81
2022-12-31T22:43:39.428Z,63.12
2022-12-31T22:46:11.508Z,63.20
2022-12-31T22:48:40.208Z,62.89
2022-12-31T22:51:09.039Z,63.13
2022-12-31T22:53:38.438Z,62.94
2022-12-31T22:56:07.864Z,62.65
2022-12-31T22:58:36.552Z,62.43
2022-12-31T23:01:06.854Z,62.49
2022-12-31T23:03:36.310Z,62.52
2022-12-31T23:06:04.541Z,62.74
2022-12-31T23:08:32.529Z,63.19
2022-12-31T23:11:00.028Z,62.72
2022-12-31T23:13:50.594Z,62.79
2022-12-31T23:16:37.140Z,62.71
2022-12-31T23:19:25.016Z,62.76
2022-12-31T23:22:11.179Z,62.95
2022-12-31T23:24:39.738Z,63.03
2022-12-31T23:27:09.211Z,62.60
2022-12-31T23:29:45.948Z,62.65
2022-12-31T23:32:16.093Z,62.70
2022-12-31T23:34:46.984Z,62.66
2022-12-31T23:37:15.690Z,62.21
2022-12-31T23:39:43.719Z,62.70
2022-12-31T23:42:11.754Z,62.71
2022-12-31T23:44:39.887Z,62.83
2022-12-31T23:47:07.937Z,62.75
2022-12-31T23:49:36.169Z,62.47
2022-12-31T23:52:05.721Z,62.67
2022-12-31T23:54:34.973Z,62.63
2022-12-31T23:57:03.027Z,62.67
2022-12-31T23:59:31.025Z,62.46
